Time;durP1;ratioP1;P1;durP2;ratioP2;P2;SDS_P1;SDS_P2;PMS_P1;PMS_P2;Temp;Humidity;BMP_temperature;BMP_pressure;BME280_temperature;BME280_humidity;BME280_pressure;Samples;Min_cycle;Max_cycle;Signal;HPM_P1;HPM_P2
2024/03/04 00:01:04;;;;;;;11.52;5.50;;;11.40;99.90;;;;;;5033707;28;20120;-74
2024/03/04 00:03:32;;;;;;;11.95;6.75;;;11.40;99.90;;;;;;5033463;28;20087;-75
2024/03/04 00:05:59;;;;;;;13.40;6.57;;;11.30;99.90;;;;;;5033708;28;20045;-76
2024/03/04 00:08:25;;;;;;;13.40;6.10;;;11.30;99.90;;;;;;5033409;28;20041;-76
2024/03/04 00:10:51;;;;;;;12.52;6.68;;;11.30;99.90;;;;;;5015749;28;20393;-76
2024/03/04 00:13:17;;;;;;;16.65;6.70;;;11.30;99.90;;;;;;5033861;28;20072;-76
2024/03/04 00:15:43;;;;;;;10.55;6.82;;;11.30;99.90;;;;;;5033390;28;20075;-76
2024/03/04 00:18:09;;;;;;;17.02;6.63;;;11.30;99.90;;;;;;5033247;28;20072;-75
2024/03/04 00:20:34;;;;;;;12.40;6.28;;;11.30;99.90;;;;;;5033244;28;20044;-76
2024/03/04 00:23:00;;;;;;;13.18;6.55;;;11.30;99.90;;;;;;5033406;28;20038;-74
2024/03/04 00:25:26;;;;;;;13.10;6.65;;;11.30;99.90;;;;;;5033142;28;20037;-75
2024/03/04 00:27:52;;;;;;;13.80;6.70;;;11.20;99.90;;;;;;5033472;28;20033;-75
2024/03/04 00:30:18;;;;;;;13.98;5.50;;;11.30;99.90;;;;;;5032467;28;20060;-76
2024/03/04 00:32:44;;;;;;;9.45;5.10;;;11.30;99.90;;;;;;5033167;28;20610;-75
2024/03/04 00:35:10;;;;;;;9.68;5.35;;;11.20;99.90;;;;;;5033139;28;20457;-74
2024/03/04 00:37:37;;;;;;;16.45;6.75;;;11.30;99.90;;;;;;5033332;28;20187;-76
2024/03/04 00:40:08;;;;;;;13.73;6.70;;;11.30;99.90;;;;;;5032924;28;20065;-76
2024/03/04 00:42:34;;;;;;;14.85;6.88;;;11.30;99.90;;;;;;5032621;28;20038;-75
2024/03/04 00:45:00;;;;;;;11.40;5.72;;;11.20;99.90;;;;;;5032976;28;20043;-76
2024/03/04 00:47:26;;;;;;;14.98;6.15;;;11.30;99.90;;;;;;5032979;28;20092;-76
2024/03/04 00:49:52;;;;;;;12.82;6.45;;;11.30;99.90;;;;;;5032815;28;20077;-73
2024/03/04 00:52:18;;;;;;;7.88;4.57;;;11.30;99.90;;;;;;5032159;28;20047;-75
2024/03/04 00:54:44;;;;;;;7.25;3.50;;;11.30;99.90;;;;;;5032973;28;20108;-76
2024/03/04 00:57:10;;;;;;;7.80;3.65;;;11.20;99.90;;;;;;5032798;28;20060;-75
2024/03/04 00:59:37;;;;;;;7.53;1.98;;;11.30;99.90;;;;;;5032904;28;20041;-77
2024/03/04 01:02:05;;;;;;;5.80;1.50;;;11.30;99.90;;;;;;5032079;28;20138;-75
2024/03/04 01:04:31;;;;;;;4.88;1.77;;;11.20;99.90;;;;;;5032335;28;20128;-75
2024/03/04 01:06:57;;;;;;;3.72;1.67;;;11.30;99.90;;;;;;5032878;28;20034;-75
2024/03/04 01:09:23;;;;;;;6.40;1.55;;;11.20;99.90;;;;;;5033107;28;20137;-74
2024/03/04 01:11:49;;;;;;;4.18;1.65;;;11.30;99.90;;;;;;5033212;28;20033;-75
2024/03/04 01:14:15;;;;;;;9.15;1.50;;;11.30;99.90;;;;;;5033106;28;20478;-76
2024/03/04 01:16:41;;;;;;;5.65;1.58;;;11.30;99.90;;;;;;5033043;28;20033;-75
2024/03/04 01:19:07;;;;;;;5.20;2.03;;;11.30;99.90;;;;;;5032902;28;20044;-75
2024/03/04 01:21:33;;;;;;;6.32;2.60;;;11.30;99.90;;;;;;5032796;28;20104;-75
2024/03/04 01:23:59;;;;;;;8.95;3.08;;;11.30;99.90;;;;;;5032946;28;20533;-75
2024/03/04 01:26:25;;;;;;;7.63;2.50;;;11.20;99.90;;;;;;5033310;28;20109;-75
2024/03/04 01:28:51;;;;;;;5.25;2.45;;;11.20;99.90;;;;;;5033085;28;20095;-75
2024/03/04 01:31:18;;;;;;;9.18;2.63;;;11.20;99.90;;;;;;5032578;28;20507;-75
2024/03/04 01:33:48;;;;;;;7.43;2.22;;;11.20;99.90;;;;;;5032466;28;20095;-74
2024/03/04 01:36:14;;;;;;;6.65;2.45;;;11.20;99.90;;;;;;5032553;28;20056;-76
2024/03/04 01:38:41;;;;;;;6.20;3.05;;;11.20;99.90;;;;;;5032685;28;20026;-76
2024/03/04 01:41:07;;;;;;;12.70;2.85;;;11.20;99.90;;;;;;5032345;28;20487;-73
2024/03/04 01:43:33;;;;;;;7.03;1.90;;;11.20;99.90;;;;;;5032507;28;20034;-76
2024/03/04 01:45:58;;;;;;;10.98;4.25;;;11.10;99.90;;;;;;5032366;28;20037;-75
2024/03/04 01:48:25;;;;;;;8.75;3.75;;;11.10;99.90;;;;;;5031920;28;20054;-75
2024/03/04 01:50:54;;;;;;;9.05;3.70;;;11.10;99.90;;;;;;5031756;28;20049;-75
2024/03/04 01:53:20;;;;;;;10.52;3.85;;;11.20;99.90;;;;;;5031875;28;20046;-74
2024/03/04 01:55:55;;;;;;;8.90;4.18;;;11.10;99.90;;;;;;5031515;28;20034;-75
2024/03/04 01:58:22;;;;;;;8.55;3.95;;;11.10;99.90;;;;;;5030812;28;20071;-76
2024/03/04 02:00:51;;;;;;;13.95;5.30;;;11.10;99.90;;;;;;5029195;28;20038;-75
2024/03/04 02:03:18;;;;;;;10.75;5.47;;;11.10;99.90;;;;;;5029626;28;20075;-76
2024/03/04 02:05:45;;;;;;;9.10;4.60;;;11.10;99.90;;;;;;5034320;28;20034;-76
2024/03/04 02:08:12;;;;;;;11.70;4.72;;;11.10;99.90;;;;;;5035220;28;20037;-76
2024/03/04 02:10:39;;;;;;;13.05;5.75;;;11.10;99.90;;;;;;5035455;28;20087;-75
2024/03/04 02:13:06;;;;;;;19.63;6.20;;;11.10;99.90;;;;;;5034792;28;20037;-76
2024/03/04 02:15:34;;;;;;;11.85;5.55;;;11.10;99.90;;;;;;5034969;28;20037;-74
2024/03/04 02:18:01;;;;;;;11.40;5.50;;;11.10;99.90;;;;;;5035157;28;20044;-76
2024/03/04 02:20:29;;;;;;;15.55;5.45;;;11.00;99.90;;;;;;5034851;28;20065;-75
2024/03/04 02:22:55;;;;;;;11.52;5.95;;;11.00;99.90;;;;;;5035375;28;20124;-76
2024/03/04 02:25:22;;;;;;;13.38;5.63;;;11.00;99.90;;;;;;5035087;28;20124;-75
2024/03/04 02:27:48;;;;;;;12.20;5.78;;;11.00;99.90;;;;;;5034279;28;20037;-75
2024/03/04 02:30:14;;;;;;;12.02;5.70;;;11.00;99.90;;;;;;5034755;28;20088;-75
2024/03/04 02:32:41;;;;;;;15.60;7.07;;;11.00;99.90;;;;;;5034772;28;20121;-76
2024/03/04 02:35:08;;;;;;;10.57;5.68;;;11.00;99.90;;;;;;5034550;28;20048;-71
2024/03/04 02:37:35;;;;;;;14.45;5.60;;;11.00;99.90;;;;;;5034767;28;20080;-75
2024/03/04 02:40:04;;;;;;;13.02;5.43;;;11.00;99.90;;;;;;5034574;28;20039;-75
2024/03/04 02:42:31;;;;;;;10.13;5.50;;;11.00;99.90;;;;;;5034868;28;20033;-74
2024/03/04 02:44:57;;;;;;;17.27;5.20;;;11.00;99.90;;;;;;5034444;28;20033;-76
2024/03/04 02:47:22;;;;;;;11.40;6.22;;;11.00;99.90;;;;;;4989272;28;1317967;-75
2024/03/04 02:49:48;;;;;;;14.02;5.20;;;10.90;99.90;;;;;;5035835;28;20085;-74
2024/03/04 02:52:14;;;;;;;13.52;5.18;;;11.00;99.90;;;;;;5035741;28;20036;-75
2024/03/04 02:54:40;;;;;;;9.60;5.15;;;11.00;99.90;;;;;;5035956;28;20049;-75
2024/03/04 02:57:05;;;;;;;11.70;3.90;;;11.00;99.90;;;;;;5035541;28;20033;-76
2024/03/04 02:59:31;;;;;;;6.68;4.30;;;10.90;99.90;;;;;;5035522;28;20037;-76
2024/03/04 03:01:57;;;;;;;10.93;4.40;;;10.90;99.90;;;;;;5035282;28;20513;-74
2024/03/04 03:04:25;;;;;;;12.43;4.15;;;10.90;99.90;;;;;;5035328;28;20136;-73
2024/03/04 03:06:51;;;;;;;12.93;3.65;;;10.90;99.90;;;;;;5035598;28;20029;-74
2024/03/04 03:09:17;;;;;;;6.97;3.15;;;10.90;99.90;;;;;;5035197;28;20506;-75
2024/03/04 03:11:43;;;;;;;10.75;3.50;;;10.90;99.90;;;;;;5034311;28;20024;-74
2024/03/04 03:14:09;;;;;;;6.53;3.42;;;10.90;99.90;;;;;;5034711;28;20109;-75
2024/03/04 03:16:35;;;;;;;7.68;3.67;;;10.90;99.90;;;;;;5035401;28;20034;-75
2024/03/04 03:19:01;;;;;;;15.25;4.07;;;10.80;99.90;;;;;;5035459;28;20030;-74
2024/03/04 03:21:27;;;;;;;14.32;4.18;;;10.90;99.90;;;;;;5035330;28;20030;-73
2024/03/04 03:23:53;;;;;;;9.32;3.67;;;10.80;99.90;;;;;;5035238;28;20099;-70
2024/03/04 03:26:19;;;;;;;11.27;3.83;;;10.90;99.90;;;;;;5035623;28;20037;-75
2024/03/04 03:28:45;;;;;;;7.80;3.70;;;10.90;99.90;;;;;;5035076;28;20060;-75
2024/03/04 03:31:11;;;;;;;5.85;3.70;;;10.90;99.90;;;;;;5034997;28;20049;-74
2024/03/04 03:33:37;;;;;;;10.15;4.05;;;10.80;99.90;;;;;;5034882;28;20060;-73
2024/03/04 03:36:05;;;;;;;10.52;4.20;;;10.80;99.90;;;;;;5035446;28;20061;-75
2024/03/04 03:38:32;;;;;;;10.85;3.72;;;10.80;99.90;;;;;;5035079;28;20032;-76
2024/03/04 03:41:00;;;;;;;12.77;4.68;;;10.80;99.90;;;;;;5034984;28;20033;-74
2024/03/04 03:43:25;;;;;;;11.02;4.20;;;10.80;99.90;;;;;;5034618;28;20025;-75
2024/03/04 03:45:52;;;;;;;9.70;4.20;;;10.80;99.90;;;;;;5034720;28;20048;-75
2024/03/04 03:48:18;;;;;;;12.10;4.30;;;10.80;99.90;;;;;;5034736;28;20169;-75
2024/03/04 03:50:47;;;;;;;12.10;4.32;;;10.70;99.90;;;;;;5034676;28;20492;-74
2024/03/04 03:53:13;;;;;;;12.70;4.25;;;10.70;99.90;;;;;;5034578;28;20057;-75
2024/03/04 03:55:42;;;;;;;15.35;4.80;;;10.80;99.90;;;;;;5016851;28;20041;-75
2024/03/04 03:58:08;;;;;;;11.77;4.30;;;10.70;99.90;;;;;;5034689;28;20069;-74
2024/03/04 04:00:34;;;;;;;13.05;4.15;;;10.70;99.90;;;;;;5034611;28;20057;-75
2024/03/04 04:03:00;;;;;;;10.50;4.30;;;10.70;99.90;;;;;;5034598;28;20036;-74
2024/03/04 04:05:26;;;;;;;8.38;4.30;;;10.70;99.90;;;;;;5034407;28;20131;-76
2024/03/04 04:07:52;;;;;;;9.02;4.25;;;10.80;99.90;;;;;;5034130;28;20056;-74
2024/03/04 04:10:17;;;;;;;11.23;4.35;;;10.70;99.90;;;;;;5034223;28;20120;-77
2024/03/04 04:12:43;;;;;;;9.93;4.50;;;10.80;99.90;;;;;;5034255;28;20033;-75
2024/03/04 04:15:09;;;;;;;9.48;4.15;;;10.80;99.90;;;;;;5034166;28;20033;-75
2024/03/04 04:17:35;;;;;;;10.65;3.88;;;10.70;99.90;;;;;;5034417;28;20149;-74
2024/03/04 04:20:01;;;;;;;7.63;4.20;;;10.70;99.90;;;;;;5034115;28;20728;-75
2024/03/04 04:22:29;;;;;;;12.73;4.35;;;10.70;99.90;;;;;;5034012;28;20060;-75
2024/03/04 04:24:55;;;;;;;10.93;4.55;;;10.70;99.90;;;;;;5034091;28;20034;-73
2024/03/04 04:27:22;;;;;;;9.13;4.20;;;10.70;99.90;;;;;;5032186;28;20037;-75
2024/03/04 04:29:49;;;;;;;11.55;4.85;;;10.70;99.90;;;;;;5033121;28;20137;-74
2024/03/04 04:32:15;;;;;;;11.10;4.22;;;10.70;99.90;;;;;;5033333;28;20037;-74
2024/03/04 04:34:44;;;;;;;11.65;4.65;;;10.70;99.90;;;;;;5033623;28;20060;-75
2024/03/04 04:37:10;;;;;;;10.77;4.40;;;10.70;99.90;;;;;;5015009;28;20493;-75
2024/03/04 04:39:41;;;;;;;9.52;4.43;;;10.70;99.90;;;;;;5033581;28;20036;-73
2024/03/04 04:42:07;;;;;;;10.68;4.40;;;10.70;99.90;;;;;;5033502;28;20597;-74
2024/03/04 04:44:33;;;;;;;12.02;5.03;;;10.70;99.90;;;;;;5033415;28;20113;-74
2024/03/04 04:46:59;;;;;;;12.70;4.30;;;10.70;99.90;;;;;;5033344;28;20049;-75
2024/03/04 04:49:25;;;;;;;9.45;4.63;;;10.60;99.90;;;;;;5033531;28;20374;-73
2024/03/04 04:51:51;;;;;;;11.02;4.88;;;10.60;99.90;;;;;;5033347;28;20029;-73
2024/03/04 04:54:17;;;;;;;13.95;4.18;;;10.60;99.90;;;;;;5033117;28;20037;-74
2024/03/04 04:56:43;;;;;;;12.10;4.80;;;10.60;99.90;;;;;;5033156;28;20156;-74
2024/03/04 04:59:08;;;;;;;12.43;4.72;;;10.60;99.90;;;;;;5033387;28;20029;-75
2024/03/04 05:01:34;;;;;;;10.70;4.80;;;10.60;99.90;;;;;;5033295;28;20034;-75
2024/03/04 05:04:01;;;;;;;9.43;4.30;;;10.60;99.90;;;;;;5033626;28;20026;-75
2024/03/04 05:06:27;;;;;;;10.52;4.50;;;10.60;99.90;;;;;;5033291;28;20458;-74
2024/03/04 05:08:52;;;;;;;9.65;4.32;;;10.60;99.90;;;;;;5033323;28;20109;-75
2024/03/04 05:11:20;;;;;;;13.77;4.25;;;10.60;99.90;;;;;;5032563;28;20073;-75
2024/03/04 05:13:48;;;;;;;9.27;4.72;;;10.60;99.90;;;;;;5033261;28;20025;-75
2024/03/04 05:16:15;;;;;;;13.75;4.97;;;10.60;99.90;;;;;;5032988;28;20037;-75
2024/03/04 05:18:41;;;;;;;11.40;4.90;;;10.60;99.90;;;;;;5033334;28;20440;-75
2024/03/04 05:21:07;;;;;;;11.70;4.75;;;10.60;99.90;;;;;;5032900;28;20033;-75
2024/03/04 05:23:33;;;;;;;16.23;4.60;;;10.60;99.90;;;;;;5032849;28;20492;-75
2024/03/04 05:25:59;;;;;;;11.63;5.03;;;10.60;99.90;;;;;;5033007;28;20426;-76
2024/03/04 05:28:25;;;;;;;10.85;4.72;;;10.60;99.90;;;;;;5032972;28;20037;-74
2024/03/04 05:30:52;;;;;;;9.90;4.28;;;10.60;99.90;;;;;;5032472;28;20046;-74
2024/03/04 05:33:21;;;;;;;15.90;5.32;;;10.60;99.90;;;;;;5032383;28;20079;-73
2024/03/04 05:35:47;;;;;;;12.35;5.30;;;10.70;99.90;;;;;;5032307;28;20033;-74
2024/03/04 05:38:13;;;;;;;9.13;4.20;;;10.70;99.90;;;;;;5034304;28;20185;-74
2024/03/04 05:40:39;;;;;;;12.45;4.50;;;10.60;99.90;;;;;;5031617;28;20088;-75
2024/03/04 05:43:05;;;;;;;8.23;3.75;;;10.60;99.90;;;;;;5032452;28;20485;-75
2024/03/04 05:45:31;;;;;;;9.52;3.70;;;10.60;99.90;;;;;;5032862;28;20121;-76
2024/03/04 05:47:57;;;;;;;7.40;4.18;;;10.60;99.90;;;;;;5032364;28;20049;-75
2024/03/04 05:50:23;;;;;;;10.77;4.18;;;10.60;99.90;;;;;;5032579;28;20053;-76
2024/03/04 05:52:49;;;;;;;14.23;5.05;;;10.60;99.90;;;;;;5032475;28;20112;-75
2024/03/04 05:55:16;;;;;;;11.35;5.40;;;10.60;99.90;;;;;;5032602;28;20071;-75
2024/03/04 05:57:42;;;;;;;11.00;4.60;;;10.60;99.90;;;;;;5032622;28;20067;-75
2024/03/04 06:00:14;;;;;;;18.77;5.63;;;10.60;99.90;;;;;;5032442;28;20044;-77
2024/03/04 06:02:43;;;;;;;13.10;4.85;;;10.60;99.90;;;;;;5014900;28;20030;-76
2024/03/04 06:05:16;;;;;;;11.57;4.45;;;10.60;99.90;;;;;;5032429;28;20034;-75
2024/03/04 06:07:41;;;;;;;16.58;5.22;;;10.60;99.90;;;;;;5014878;28;20044;-76
2024/03/04 06:10:08;;;;;;;9.48;4.35;;;10.60;99.90;;;;;;5032359;28;20042;-76
2024/03/04 06:12:34;;;;;;;16.60;5.07;;;10.60;99.90;;;;;;5032815;28;20030;-76
2024/03/04 06:15:00;;;;;;;16.40;5.30;;;10.60;99.90;;;;;;5032373;28;20500;-76
2024/03/04 06:17:29;;;;;;;11.32;4.05;;;10.60;99.90;;;;;;5032585;28;20034;-76
2024/03/04 06:19:54;;;;;;;11.93;4.90;;;10.70;99.90;;;;;;5032773;28;20037;-77
2024/03/04 06:22:20;;;;;;;14.35;4.90;;;10.60;99.90;;;;;;5032555;28;20037;-76
2024/03/04 06:24:46;;;;;;;12.25;5.13;;;10.60;99.90;;;;;;5032618;28;20061;-76
2024/03/04 06:27:12;;;;;;;10.02;5.07;;;10.60;99.90;;;;;;5032127;28;20034;-76
2024/03/04 06:29:37;;;;;;;9.13;4.82;;;10.60;99.90;;;;;;5031905;28;20100;-77
2024/03/04 06:32:04;;;;;;;12.38;4.68;;;10.60;99.90;;;;;;5032222;28;20037;-76
2024/03/04 06:34:30;;;;;;;12.15;4.95;;;10.70;99.90;;;;;;5032558;28;20061;-76
2024/03/04 06:36:59;;;;;;;11.43;4.82;;;10.60;99.90;;;;;;5032280;28;20083;-75
2024/03/04 06:39:27;;;;;;;14.00;5.10;;;10.70;99.90;;;;;;5031761;28;20609;-76
2024/03/04 06:41:53;;;;;;;13.98;5.13;;;10.70;99.90;;;;;;5031415;28;20440;-74
2024/03/04 06:44:18;;;;;;;12.73;4.88;;;10.70;99.90;;;;;;5031564;28;20108;-75
2024/03/04 06:46:45;;;;;;;11.75;5.00;;;10.70;99.90;;;;;;5031326;28;20038;-77
2024/03/04 06:49:11;;;;;;;14.73;6.07;;;10.70;99.90;;;;;;5032004;28;20042;-75
2024/03/04 06:51:37;;;;;;;10.43;5.00;;;10.70;99.90;;;;;;5034927;28;20501;-76
2024/03/04 06:54:07;;;;;;;10.15;5.70;;;10.70;99.90;;;;;;5035958;28;20379;-76
2024/03/04 06:56:33;;;;;;;12.18;5.15;;;10.70;99.90;;;;;;5036462;28;20509;-76
2024/03/04 06:59:02;;;;;;;9.95;5.05;;;10.70;99.90;;;;;;5035318;28;20033;-76
2024/03/04 07:01:29;;;;;;;14.38;5.20;;;10.70;99.90;;;;;;5035459;28;20045;-76
2024/03/04 07:03:55;;;;;;;11.45;5.40;;;10.80;99.90;;;;;;5035850;28;20555;-75
2024/03/04 07:06:21;;;;;;;17.38;5.85;;;10.80;99.90;;;;;;5035593;28;20025;-76
2024/03/04 07:08:47;;;;;;;11.48;5.18;;;10.80;99.90;;;;;;5035153;28;20488;-75
2024/03/04 07:11:13;;;;;;;11.63;5.13;;;10.80;99.90;;;;;;5035593;28;20077;-75
2024/03/04 07:13:40;;;;;;;15.20;4.85;;;10.80;99.90;;;;;;5035592;28;20508;-76
2024/03/04 07:16:07;;;;;;;9.85;4.50;;;10.90;99.90;;;;;;5035406;28;20038;-76
2024/03/04 07:18:35;;;;;;;10.90;4.50;;;10.90;99.90;;;;;;5035326;28;20034;-74
2024/03/04 07:21:01;;;;;;;14.13;4.95;;;11.00;99.90;;;;;;5017868;28;20034;-76
2024/03/04 07:23:27;;;;;;;12.93;5.30;;;10.90;99.90;;;;;;5034644;28;20473;-74
2024/03/04 07:25:53;;;;;;;13.40;5.38;;;10.90;99.90;;;;;;5035031;28;20044;-75
2024/03/04 07:28:19;;;;;;;14.20;5.57;;;10.90;99.90;;;;;;5035324;28;20073;-76
2024/03/04 07:30:46;;;;;;;20.25;5.20;;;10.90;99.90;;;;;;5033685;28;20068;-76
2024/03/04 07:33:13;;;;;;;9.77;4.80;;;10.90;99.90;;;;;;5034107;28;20037;-76
2024/03/04 07:35:40;;;;;;;12.02;5.35;;;10.90;99.90;;;;;;5031825;28;20041;-74
2024/03/04 07:38:05;;;;;;;17.63;5.88;;;10.90;99.90;;;;;;5031756;28;20510;-76
2024/03/04 07:40:31;;;;;;;16.98;5.88;;;10.90;99.90;;;;;;5031952;28;20122;-76
2024/03/04 07:42:57;;;;;;;13.60;4.90;;;10.90;99.90;;;;;;5032807;28;20033;-75
2024/03/04 07:45:23;;;;;;;14.15;4.05;;;11.00;99.90;;;;;;5033645;28;20049;-77
2024/03/04 07:47:49;;;;;;;8.45;4.00;;;11.00;99.90;;;;;;5032904;28;20057;-75
2024/03/04 07:50:15;;;;;;;9.50;3.35;;;11.00;99.90;;;;;;5033521;28;20094;-75
2024/03/04 07:52:40;;;;;;;6.45;2.80;;;11.00;99.90;;;;;;5033528;28;20068;-75
2024/03/04 07:55:08;;;;;;;10.50;2.80;;;11.10;99.90;;;;;;5032893;28;20033;-74
2024/03/04 07:57:34;;;;;;;15.15;3.22;;;11.10;99.90;;;;;;5014402;28;20052;-75
2024/03/04 07:59:59;;;;;;;6.65;3.15;;;11.20;99.90;;;;;;5031995;28;20025;-74
2024/03/04 08:02:25;;;;;;;9.20;2.95;;;11.10;99.90;;;;;;5031388;28;20042;-72
2024/03/04 08:04:51;;;;;;;6.32;2.55;;;11.20;99.90;;;;;;5033873;28;20033;-73
2024/03/04 08:07:16;;;;;;;9.75;2.88;;;11.30;99.90;;;;;;5034026;28;20037;-73
2024/03/04 08:09:42;;;;;;;13.82;3.63;;;11.30;99.90;;;;;;5033857;28;20041;-75
2024/03/04 08:12:08;;;;;;;7.63;2.42;;;11.30;99.90;;;;;;5033885;28;20072;-71
2024/03/04 08:14:36;;;;;;;15.05;2.30;;;11.30;99.90;;;;;;5032084;28;20042;-75
2024/03/04 08:17:02;;;;;;;13.95;2.75;;;11.40;99.90;;;;;;5031132;28;20466;-73
2024/03/04 08:19:28;;;;;;;15.35;2.40;;;11.40;99.90;;;;;;5032828;28;20080;-75
2024/03/04 08:21:53;;;;;;;7.15;2.65;;;11.50;99.90;;;;;;5035425;28;20037;-74
2024/03/04 08:24:19;;;;;;;7.57;2.38;;;11.50;99.90;;;;;;5034442;28;20424;-75
2024/03/04 08:26:45;;;;;;;9.45;4.07;;;11.50;99.90;;;;;;5034960;28;20140;-73
2024/03/04 08:29:11;;;;;;;8.70;4.40;;;11.50;99.90;;;;;;5033443;28;20056;-75
2024/03/04 08:31:37;;;;;;;14.15;4.68;;;11.60;99.90;;;;;;5034630;28;20040;-74
2024/03/04 08:34:06;;;;;;;14.32;4.72;;;11.60;99.90;;;;;;5038634;28;20047;-74
2024/03/04 08:36:32;;;;;;;12.48;4.65;;;11.60;99.90;;;;;;5033010;28;20402;-67
2024/03/04 08:38:58;;;;;;;14.18;5.00;;;11.70;99.90;;;;;;5015844;28;20044;-74
2024/03/04 08:41:24;;;;;;;12.07;5.13;;;11.70;99.90;;;;;;5032809;28;20426;-75
2024/03/04 08:43:51;;;;;;;16.92;6.82;;;11.80;99.90;;;;;;5032812;28;20045;-73
2024/03/04 08:46:17;;;;;;;11.93;6.15;;;11.80;99.90;;;;;;5032950;28;20048;-74
2024/03/04 08:48:43;;;;;;;11.23;5.18;;;11.80;99.90;;;;;;5033248;28;20045;-73
2024/03/04 08:51:09;;;;;;;12.55;6.50;;;11.80;99.90;;;;;;5015236;28;20053;-73
2024/03/04 08:53:35;;;;;;;12.45;6.05;;;11.80;99.90;;;;;;5032686;28;20479;-75
2024/03/04 08:56:01;;;;;;;9.25;5.38;;;11.90;99.90;;;;;;5032223;28;20064;-73
2024/03/04 08:58:27;;;;;;;9.70;5.50;;;11.90;99.90;;;;;;5032516;28;20394;-72
2024/03/04 09:00:53;;;;;;;11.60;6.15;;;11.90;99.90;;;;;;5015223;28;20033;-74
2024/03/04 09:03:19;;;;;;;15.45;5.10;;;11.90;99.90;;;;;;5033267;28;20100;-72
2024/03/04 09:05:45;;;;;;;13.30;6.18;;;12.00;99.90;;;;;;5032771;28;20485;-72
2024/03/04 09:08:14;;;;;;;17.17;6.90;;;12.00;99.90;;;;;;5032731;28;20089;-69
2024/03/04 09:10:40;;;;;;;13.85;6.20;;;12.00;99.90;;;;;;5030250;28;20148;-74
2024/03/04 09:13:06;;;;;;;11.55;6.40;;;12.00;99.90;;;;;;5030117;28;20428;-72
2024/03/04 09:15:32;;;;;;;14.95;6.93;;;12.00;99.90;;;;;;5032320;28;20033;-67
2024/03/04 09:17:59;;;;;;;11.23;6.40;;;12.10;99.90;;;;;;5015082;28;20068;-74
2024/03/04 09:20:24;;;;;;;11.65;5.35;;;12.10;99.90;;;;;;5032189;28;20033;-74
2024/03/04 09:22:50;;;;;;;17.67;5.25;;;12.10;99.90;;;;;;5031334;28;20038;-74
2024/03/04 09:25:16;;;;;;;10.00;4.82;;;12.20;99.90;;;;;;5031148;28;20030;-74
2024/03/04 09:27:43;;;;;;;12.68;5.00;;;12.30;99.90;;;;;;5031988;28;20543;-74
2024/03/04 09:30:09;;;;;;;15.23;5.72;;;12.30;99.90;;;;;;5032361;28;20049;-74
2024/03/04 09:32:35;;;;;;;10.65;4.78;;;12.30;99.90;;;;;;5032681;28;20036;-75
2024/03/04 09:35:01;;;;;;;11.25;4.97;;;12.40;99.90;;;;;;5032547;28;20037;-74
2024/03/04 09:37:27;;;;;;;16.73;5.30;;;12.40;99.90;;;;;;5032434;28;20060;-74
2024/03/04 09:39:53;;;;;;;16.23;4.70;;;12.40;99.90;;;;;;5032063;28;20112;-75
2024/03/04 09:42:19;;;;;;;12.82;3.45;;;12.50;99.90;;;;;;5032111;28;20033;-75
2024/03/04 09:44:46;;;;;;;12.07;4.15;;;12.50;99.90;;;;;;5032126;28;20041;-74
2024/03/04 09:47:17;;;;;;;11.00;4.32;;;12.50;99.90;;;;;;5032188;28;20076;-75
2024/03/04 09:49:43;;;;;;;13.65;4.68;;;12.50;99.90;;;;;;5032436;28;20049;-73
2024/03/04 09:52:09;;;;;;;12.85;5.07;;;12.50;99.90;;;;;;5030814;28;20030;-74
2024/03/04 09:54:37;;;;;;;12.55;4.03;;;12.50;99.90;;;;;;5031949;28;20113;-72
2024/03/04 09:57:03;;;;;;;12.45;4.30;;;12.50;99.90;;;;;;5030983;28;20370;-72
2024/03/04 09:59:32;;;;;;;13.25;4.40;;;12.60;99.90;;;;;;5031522;28;20041;-74
2024/03/04 10:01:59;;;;;;;14.75;4.05;;;12.60;99.90;;;;;;5031818;28;20083;-74
2024/03/04 10:04:26;;;;;;;11.40;3.70;;;12.60;99.90;;;;;;5031125;28;20030;-67
2024/03/04 10:06:52;;;;;;;15.55;4.35;;;12.70;99.90;;;;;;4995457;28;20389;-72
2024/03/04 10:09:19;;;;;;;12.82;3.80;;;12.80;99.90;;;;;;5011562;28;20037;-66
2024/03/04 10:11:45;;;;;;;14.18;3.35;;;12.80;99.90;;;;;;5012073;28;20459;-73
2024/03/04 10:14:11;;;;;;;12.65;3.88;;;12.80;99.90;;;;;;5011953;28;20176;-73
2024/03/04 10:16:37;;;;;;;9.98;3.20;;;12.80;99.90;;;;;;5012184;28;20551;-71
2024/03/04 10:19:04;;;;;;;8.52;2.85;;;12.90;99.90;;;;;;5012204;28;20101;-73
2024/03/04 10:21:33;;;;;;;12.80;3.58;;;12.90;99.90;;;;;;5012738;28;20045;-73
2024/03/04 10:24:07;;;;;;;11.20;3.20;;;13.00;99.90;;;;;;5012516;28;20037;-74
2024/03/04 10:27:02;;;;;;;9.82;2.85;;;13.00;99.90;;;;;;5016879;28;20038;-74
2024/03/04 10:29:28;;;;;;;10.32;2.30;;;13.10;99.90;;;;;;5014628;28;20474;-75
2024/03/04 10:31:54;;;;;;;12.65;2.80;;;13.10;99.90;;;;;;5016614;28;20058;-75
2024/03/04 10:34:20;;;;;;;11.45;2.92;;;13.10;99.90;;;;;;5016040;28;20029;-71
2024/03/04 10:36:48;;;;;;;9.02;2.40;;;13.20;99.90;;;;;;5016222;28;20037;-74
2024/03/04 10:39:17;;;;;;;10.68;2.53;;;13.30;99.90;;;;;;5016071;28;20026;-74
2024/03/04 10:41:46;;;;;;;17.33;2.50;;;13.30;99.90;;;;;;5035648;28;20478;-74
2024/03/04 10:44:27;;;;;;;9.60;2.28;;;13.30;99.90;;;;;;5035884;28;20034;-73
2024/03/04 10:46:58;;;;;;;8.35;2.45;;;13.40;99.90;;;;;;5035118;28;20033;-74
2024/03/04 10:49:24;;;;;;;9.93;2.58;;;13.50;99.90;;;;;;5035543;28;20061;-72
2024/03/04 10:51:50;;;;;;;10.15;2.00;;;13.50;99.90;;;;;;5035780;28;20115;-74
2024/03/04 10:54:22;;;;;;;8.52;1.88;;;13.50;99.90;;;;;;5035702;28;20037;-75
2024/03/04 10:56:59;;;;;;;11.10;2.58;;;13.60;99.90;;;;;;5035342;28;20198;-74
2024/03/04 10:59:37;;;;;;;12.38;2.22;;;13.70;99.90;;;;;;5035491;28;20049;-74
2024/03/04 11:02:10;;;;;;;11.40;2.70;;;13.70;99.90;;;;;;5035585;28;20034;-74
2024/03/04 11:04:38;;;;;;;10.20;2.50;;;13.80;99.90;;;;;;5035689;28;20029;-75
2024/03/04 11:07:10;;;;;;;8.63;1.98;;;14.00;99.90;;;;;;5035615;28;20091;-75
2024/03/04 11:09:42;;;;;;;6.95;1.90;;;14.10;99.90;;;;;;5035721;28;20049;-72
2024/03/04 11:12:10;;;;;;;9.48;2.78;;;14.10;99.90;;;;;;5035660;28;20025;-74
2024/03/04 11:14:44;;;;;;;7.97;2.20;;;14.20;99.90;;;;;;5035250;28;20497;-74
2024/03/04 11:17:20;;;;;;;6.13;1.80;;;14.20;99.90;;;;;;5015874;28;20152;-74
2024/03/04 11:19:56;;;;;;;10.00;1.80;;;14.30;99.90;;;;;;5035494;28;20040;-73
2024/03/04 11:22:23;;;;;;;9.45;1.73;;;14.30;99.90;;;;;;5035162;28;20490;-69
2024/03/04 11:24:50;;;;;;;9.10;1.58;;;14.30;99.90;;;;;;5017120;28;20033;-73
2024/03/04 11:27:18;;;;;;;12.68;1.55;;;14.30;99.90;;;;;;5034661;28;20612;-73
2024/03/04 11:29:45;;;;;;;9.55;2.05;;;14.40;99.90;;;;;;5033224;28;20099;-73
2024/03/04 11:32:11;;;;;;;8.00;2.13;;;14.40;99.90;;;;;;5032946;28;20498;-74
2024/03/04 11:35:05;;;;;;;7.68;1.90;;;14.50;99.90;;;;;;5032729;28;20076;-74
2024/03/04 11:37:32;;;;;;;11.70;2.08;;;14.50;99.90;;;;;;5032682;28;20033;-73
2024/03/04 11:40:01;;;;;;;11.05;1.85;;;14.50;99.90;;;;;;5032460;28;20034;-73
2024/03/04 11:42:38;;;;;;;13.07;1.75;;;14.50;99.90;;;;;;5032666;28;20477;-73
2024/03/04 11:45:08;;;;;;;5.80;1.63;;;14.50;99.90;;;;;;5033258;28;20026;-73
2024/03/04 11:47:34;;;;;;;10.88;3.10;;;14.50;99.90;;;;;;5034472;28;20512;-75
2024/03/04 11:50:04;;;;;;;11.40;1.83;;;14.50;99.90;;;;;;5034279;28;20052;-73
2024/03/04 11:52:35;;;;;;;9.48;1.98;;;14.50;99.90;;;;;;5034288;28;20503;-73
2024/03/04 11:55:01;;;;;;;7.07;1.70;;;14.50;99.90;;;;;;5034495;28;20095;-74
2024/03/04 11:57:26;;;;;;;9.75;2.15;;;14.60;99.90;;;;;;5034932;28;20030;-75
2024/03/04 12:00:00;;;;;;;13.25;2.40;;;14.60;99.90;;;;;;5034281;28;20064;-74
2024/03/04 12:02:26;;;;;;;9.68;1.80;;;14.60;99.90;;;;;;5034273;28;20034;-75
2024/03/04 12:04:56;;;;;;;13.40;2.17;;;14.60;99.90;;;;;;5034519;28;20034;-74
2024/03/04 12:07:22;;;;;;;11.15;1.92;;;14.60;99.90;;;;;;5033907;28;20033;-74
2024/03/04 12:09:48;;;;;;;13.88;1.83;;;14.50;99.90;;;;;;5033834;28;20042;-73
2024/03/04 12:12:15;;;;;;;14.18;2.70;;;14.50;99.90;;;;;;5033913;28;20048;-73
2024/03/04 12:14:42;;;;;;;12.75;1.90;;;14.50;99.90;;;;;;5034000;28;20026;-73
2024/03/04 12:17:08;;;;;;;11.85;2.72;;;14.50;99.90;;;;;;5033655;28;20092;-74
2024/03/04 12:19:34;;;;;;;18.50;2.25;;;14.60;99.90;;;;;;5034095;28;20429;-73
2024/03/04 12:22:00;;;;;;;12.48;2.00;;;14.70;99.90;;;;;;5034377;28;20034;-74
2024/03/04 12:24:26;;;;;;;17.55;3.65;;;14.80;99.90;;;;;;5033886;28;20633;-67
2024/03/04 12:26:55;;;;;;;27.88;2.80;;;14.80;99.80;;;;;;5033519;28;20442;-73
2024/03/04 12:29:22;;;;;;;20.08;2.72;;;14.80;99.60;;;;;;5033575;28;20129;-75
2024/03/04 12:31:50;;;;;;;18.33;2.28;;;14.80;99.80;;;;;;5033864;28;20042;-74
2024/03/04 12:34:22;;;;;;;17.52;2.75;;;14.90;99.90;;;;;;5033648;28;20030;-74
2024/03/04 12:36:49;;;;;;;20.30;2.50;;;15.00;99.90;;;;;;5033545;28;20033;-75
2024/03/04 12:39:22;;;;;;;18.52;3.40;;;15.10;99.90;;;;;;5033053;28;20037;-74